Time;durP1;ratioP1;P1;durP2;ratioP2;P2;SDS_P1;SDS_P2;PMS_P1;PMS_P2;Temp;Humidity;BMP_temperature;BMP_pressure;BME280_temperature;BME280_humidity;BME280_pressure;Samples;Min_cycle;Max_cycle;Signal;HPM_P1;HPM_P2
2021/09/24 00:00:09;;;;;;;2.53;1.70;;;21.60;63.40;;;;;;5068278;28;20205;-68
2021/09/24 00:02:41;;;;;;;2.07;1.40;;;21.60;63.30;;;;;;5068031;28;20512;-68
2021/09/24 00:05:12;;;;;;;1.77;1.50;;;21.60;63.40;;;;;;5068934;28;20190;-68
2021/09/24 00:07:43;;;;;;;1.63;1.53;;;21.60;63.30;;;;;;5069867;28;20201;-68
2021/09/24 00:10:18;;;;;;;1.70;1.40;;;21.60;63.40;;;;;;5070265;28;20198;-69
2021/09/24 00:12:54;;;;;;;1.50;1.40;;;21.60;63.30;;;;;;5053215;28;20208;-68
2021/09/24 00:15:27;;;;;;;1.37;1.20;;;21.60;63.50;;;;;;5052450;28;20658;-68
2021/09/24 00:17:54;;;;;;;3.93;1.20;;;21.60;63.40;;;;;;5050865;28;20206;-68
2021/09/24 00:20:23;;;;;;;2.00;1.33;;;21.60;63.30;;;;;;5053461;28;20221;-68
2021/09/24 00:22:53;;;;;;;1.70;1.37;;;21.60;63.40;;;;;;5053044;28;20198;-68
2021/09/24 00:25:32;;;;;;;1.87;1.30;;;21.60;63.30;;;;;;5069028;28;20339;-68
2021/09/24 00:28:05;;;;;;;2.77;1.40;;;21.60;63.40;;;;;;5067556;28;20190;-68
2021/09/24 00:30:37;;;;;;;2.23;1.50;;;21.60;63.20;;;;;;5053599;28;20270;-68
2021/09/24 00:33:05;;;;;;;2.53;1.40;;;21.60;63.30;;;;;;5051698;28;20233;-68
2021/09/24 00:35:35;;;;;;;2.63;1.27;;;21.60;63.40;;;;;;5058046;28;20231;-68
2021/09/24 00:38:04;;;;;;;2.83;1.50;;;21.60;63.40;;;;;;5068988;28;20193;-67
2021/09/24 00:40:36;;;;;;;1.87;1.60;;;21.60;63.30;;;;;;5058610;28;20236;-68
2021/09/24 00:43:07;;;;;;;2.20;1.50;;;21.60;63.30;;;;;;5073859;28;20234;-68
2021/09/24 00:45:45;;;;;;;1.63;1.17;;;21.60;63.40;;;;;;5072189;28;20197;-67
2021/09/24 00:48:13;;;;;;;1.43;1.33;;;21.60;63.40;;;;;;5056802;28;20735;-67
2021/09/24 00:50:42;;;;;;;2.40;1.53;;;21.60;63.40;;;;;;5059139;28;20215;-67
2021/09/24 00:53:14;;;;;;;2.63;1.70;;;21.60;63.40;;;;;;5071396;28;20206;-67
2021/09/24 00:55:49;;;;;;;1.73;1.43;;;21.60;63.50;;;;;;5070532;28;20205;-67
2021/09/24 00:58:31;;;;;;;2.53;1.60;;;21.60;63.30;;;;;;5064107;28;20211;-67
2021/09/24 01:01:10;;;;;;;2.07;1.37;;;21.60;63.30;;;;;;5058208;28;20606;-67
2021/09/24 01:03:43;;;;;;;1.33;1.17;;;21.60;63.30;;;;;;5072978;28;20202;-67
2021/09/24 01:06:17;;;;;;;3.63;1.30;;;21.60;63.30;;;;;;5073209;28;20210;-67
2021/09/24 01:08:49;;;;;;;1.80;1.50;;;21.60;63.30;;;;;;5073087;28;20197;-68
2021/09/24 01:11:17;;;;;;;1.53;1.20;;;21.60;63.50;;;;;;5055884;28;20208;-68
2021/09/24 01:13:47;;;;;;;2.80;1.40;;;21.60;63.50;;;;;;5070292;28;20220;-68
2021/09/24 01:16:19;;;;;;;1.80;1.53;;;21.50;63.30;;;;;;5084089;28;20212;-68
2021/09/24 01:18:49;;;;;;;1.53;1.20;;;21.60;63.40;;;;;;5056806;28;20850;-67
2021/09/24 01:21:20;;;;;;;1.40;1.30;;;21.60;63.50;;;;;;5058009;28;20305;-67
2021/09/24 01:23:50;;;;;;;1.20;1.10;;;21.50;63.30;;;;;;5070443;28;20194;-67
2021/09/24 01:26:24;;;;;;;1.67;1.20;;;21.60;63.50;;;;;;5072317;28;20654;-68
2021/09/24 01:28:59;;;;;;;2.70;1.40;;;21.60;63.40;;;;;;5072147;28;20530;-68
2021/09/24 01:31:28;;;;;;;1.63;1.30;;;21.60;63.40;;;;;;5073740;28;20263;-68
2021/09/24 01:34:02;;;;;;;2.60;1.47;;;21.50;63.40;;;;;;5040625;28;20222;-67
2021/09/24 01:36:34;;;;;;;1.67;1.30;;;21.50;63.10;;;;;;5060312;28;20221;-68
2021/09/24 01:39:10;;;;;;;1.43;1.30;;;21.60;63.10;;;;;;5068055;28;20627;-68
2021/09/24 01:41:44;;;;;;;2.50;1.60;;;21.50;63.10;;;;;;5070639;28;20678;-68
2021/09/24 01:44:18;;;;;;;1.80;1.30;;;21.50;63.10;;;;;;5076729;28;20708;-68
2021/09/24 01:46:59;;;;;;;1.80;1.40;;;21.60;63.30;;;;;;5057389;28;20203;-68
2021/09/24 01:49:28;;;;;;;2.00;1.50;;;21.60;63.30;;;;;;5059686;28;20206;-68
2021/09/24 01:51:57;;;;;;;1.60;1.47;;;21.60;63.30;;;;;;5053142;28;20205;-68
2021/09/24 01:54:28;;;;;;;1.90;1.30;;;21.60;63.10;;;;;;5052752;28;20270;-68
2021/09/24 01:57:01;;;;;;;1.30;1.20;;;21.50;63.10;;;;;;5070973;28;20217;-68
2021/09/24 01:59:34;;;;;;;2.33;1.80;;;21.50;63.00;;;;;;5061773;28;20218;-67
2021/09/24 02:02:05;;;;;;;3.60;1.40;;;21.50;62.80;;;;;;5068781;28;20222;-67
2021/09/24 02:04:36;;;;;;;2.07;1.30;;;21.50;63.00;;;;;;5057804;28;20201;-67
2021/09/24 02:07:07;;;;;;;1.50;1.37;;;21.50;63.00;;;;;;5066592;28;20190;-68
2021/09/24 02:09:36;;;;;;;2.00;1.40;;;21.50;63.50;;;;;;5059484;28;20250;-68
2021/09/24 02:12:11;;;;;;;1.53;1.43;;;21.50;62.80;;;;;;5070701;28;20198;-68
2021/09/24 02:14:38;;;;;;;1.97;1.53;;;21.50;62.80;;;;;;5055191;28;20205;-68
2021/09/24 02:17:07;;;;;;;1.50;1.40;;;21.50;62.70;;;;;;5064684;28;20210;-68
2021/09/24 02:19:36;;;;;;;1.63;1.37;;;21.50;62.90;;;;;;5071189;28;20206;-68
2021/09/24 02:22:06;;;;;;;2.13;1.30;;;21.50;62.70;;;;;;5043947;28;20694;-68
2021/09/24 02:24:37;;;;;;;2.37;1.60;;;21.50;62.70;;;;;;5069978;28;20635;-68
2021/09/24 02:27:10;;;;;;;2.30;1.43;;;21.50;62.60;;;;;;5054916;28;20243;-68
2021/09/24 02:29:38;;;;;;;2.77;1.83;;;21.50;62.60;;;;;;5070120;28;20615;-68
2021/09/24 02:32:06;;;;;;;2.73;1.43;;;21.50;62.60;;;;;;5062256;28;20198;-68
2021/09/24 02:34:33;;;;;;;2.50;1.60;;;21.50;62.60;;;;;;5070052;28;20569;-66
2021/09/24 02:37:08;;;;;;;2.07;1.63;;;21.50;62.60;;;;;;5039087;28;20201;-66
2021/09/24 02:39:43;;;;;;;2.43;1.50;;;21.50;62.70;;;;;;5071356;28;20221;-66
2021/09/24 02:42:13;;;;;;;2.70;1.90;;;21.50;62.50;;;;;;5059258;28;20719;-66
2021/09/24 02:44:44;;;;;;;2.80;1.80;;;21.50;62.60;;;;;;5070226;28;20764;-67
2021/09/24 02:47:14;;;;;;;2.23;1.67;;;21.50;62.60;;;;;;5071472;28;20190;-66
2021/09/24 02:49:47;;;;;;;2.10;1.67;;;21.50;62.50;;;;;;5068011;28;20225;-66
2021/09/24 02:52:33;;;;;;;2.47;1.90;;;21.50;62.60;;;;;;5064756;28;20296;-66
2021/09/24 02:55:05;;;;;;;2.37;1.90;;;21.50;62.50;;;;;;5067698;28;20632;-66
2021/09/24 02:57:36;;;;;;;3.00;1.90;;;21.50;62.50;;;;;;5067523;28;20194;-67
2021/09/24 03:00:08;;;;;;;2.03;1.83;;;21.50;62.50;;;;;;5055235;28;20210;-67
2021/09/24 03:02:38;;;;;;;3.63;2.30;;;21.50;62.30;;;;;;5070700;28;20208;-66
2021/09/24 03:05:10;;;;;;;3.53;2.57;;;21.50;62.50;;;;;;5055303;28;20191;-67
2021/09/24 03:07:37;;;;;;;2.57;2.20;;;21.50;62.40;;;;;;5071335;28;20208;-66
2021/09/24 03:10:13;;;;;;;4.50;2.57;;;21.50;62.50;;;;;;5060442;28;20695;-67
2021/09/24 03:12:45;;;;;;;2.63;2.40;;;21.50;63.00;;;;;;5052261;28;20565;-67
2021/09/24 03:15:16;;;;;;;3.47;2.70;;;21.50;62.30;;;;;;5061470;28;20203;-67
2021/09/24 03:17:47;;;;;;;4.97;2.73;;;21.50;62.20;;;;;;5070576;28;20264;-67
2021/09/24 03:20:16;;;;;;;3.83;2.93;;;21.50;62.30;;;;;;5071656;28;20591;-67
2021/09/24 03:22:45;;;;;;;3.00;2.70;;;21.50;62.20;;;;;;5054109;28;20190;-67
2021/09/24 03:25:14;;;;;;;4.93;3.43;;;21.50;62.20;;;;;;5050450;28;20194;-67
2021/09/24 03:27:49;;;;;;;3.37;3.07;;;21.50;62.20;;;;;;5055217;28;20194;-66
2021/09/24 03:30:19;;;;;;;3.47;3.10;;;21.50;62.10;;;;;;5049163;28;20201;-67
2021/09/24 03:32:48;;;;;;;4.13;3.20;;;21.50;62.00;;;;;;5066585;28;20601;-67
2021/09/24 03:35:19;;;;;;;3.87;3.20;;;21.50;62.20;;;;;;5073495;28;20216;-66
2021/09/24 03:37:54;;;;;;;3.30;3.00;;;21.50;62.10;;;;;;5056643;28;20258;-66
2021/09/24 03:40:24;;;;;;;3.87;3.33;;;21.50;62.00;;;;;;5066334;28;20205;-66
2021/09/24 03:42:54;;;;;;;4.10;3.70;;;21.50;62.10;;;;;;5061880;28;20217;-66
2021/09/24 03:45:24;;;;;;;5.47;3.67;;;21.50;62.00;;;;;;5017598;28;20263;-66
2021/09/24 03:47:58;;;;;;;4.60;3.80;;;21.50;62.10;;;;;;5046305;28;20205;-66
2021/09/24 03:50:29;;;;;;;4.43;3.70;;;21.50;62.00;;;;;;5050396;28;20198;-66
2021/09/24 03:52:58;;;;;;;4.47;4.07;;;21.50;62.00;;;;;;5040260;28;20211;-66
2021/09/24 03:55:30;;;;;;;5.27;4.27;;;21.50;61.90;;;;;;5047767;28;20542;-66
2021/09/24 03:58:02;;;;;;;5.03;4.30;;;21.50;62.00;;;;;;5029245;28;20194;-66
2021/09/24 04:00:33;;;;;;;4.83;4.23;;;21.50;61.90;;;;;;5024698;28;20195;-67
2021/09/24 04:03:06;;;;;;;5.33;4.50;;;21.50;61.90;;;;;;5049804;28;20197;-67
2021/09/24 04:05:34;;;;;;;6.30;4.80;;;21.50;61.90;;;;;;5060111;28;20202;-67
2021/09/24 04:08:05;;;;;;;6.30;4.70;;;21.40;61.80;;;;;;5054123;28;20195;-66
2021/09/24 04:10:36;;;;;;;6.43;5.37;;;21.50;61.80;;;;;;5048805;28;20640;-66
2021/09/24 04:13:08;;;;;;;5.87;5.10;;;21.50;61.90;;;;;;5047377;28;20198;-66
2021/09/24 04:15:41;;;;;;;6.73;5.37;;;21.50;61.90;;;;;;5041474;28;20198;-66
2021/09/24 04:18:12;;;;;;;4.87;4.47;;;21.50;61.80;;;;;;5034954;28;20306;-67
2021/09/24 04:20:43;;;;;;;6.03;5.43;;;21.50;61.70;;;;;;5045957;28;20207;-67
2021/09/24 04:23:17;;;;;;;6.33;5.37;;;21.50;61.80;;;;;;5051298;28;20206;-67
2021/09/24 04:25:51;;;;;;;5.80;5.20;;;21.40;61.70;;;;;;5025120;28;20200;-66
2021/09/24 04:28:23;;;;;;;5.90;5.20;;;21.40;61.70;;;;;;5045874;28;20207;-66
2021/09/24 04:31:02;;;;;;;6.20;5.57;;;21.50;61.70;;;;;;5037071;28;20675;-67
2021/09/24 04:33:54;;;;;;;7.07;6.13;;;21.40;61.70;;;;;;5036138;28;20182;-67
2021/09/24 04:36:23;;;;;;;6.60;5.70;;;21.40;61.60;;;;;;5049805;28;20202;-67
2021/09/24 04:38:55;;;;;;;6.43;5.57;;;21.50;61.70;;;;;;5046502;28;20639;-67
2021/09/24 04:41:26;;;;;;;8.37;6.50;;;21.50;61.60;;;;;;5052255;28;20231;-67
2021/09/24 04:43:57;;;;;;;7.57;6.37;;;21.40;61.60;;;;;;5044520;28;20555;-67
2021/09/24 04:46:33;;;;;;;7.40;6.47;;;21.40;61.60;;;;;;5070935;28;20228;-66
2021/09/24 04:49:03;;;;;;;8.43;6.50;;;21.50;61.70;;;;;;5073865;28;20214;-66
2021/09/24 04:51:36;;;;;;;6.87;6.10;;;21.40;61.50;;;;;;5068956;28;20190;-67
2021/09/24 04:54:08;;;;;;;7.37;6.50;;;21.40;61.50;;;;;;5065846;28;20217;-67
2021/09/24 04:56:39;;;;;;;7.87;6.80;;;21.50;61.50;;;;;;5057139;28;20696;-67
2021/09/24 04:59:08;;;;;;;10.53;7.40;;;21.40;61.30;;;;;;5056563;28;20205;-67
2021/09/24 05:01:37;;;;;;;8.20;6.57;;;21.50;61.50;;;;;;5063490;28;20309;-67
2021/09/24 05:04:10;;;;;;;7.67;6.97;;;21.40;61.40;;;;;;5064785;28;20214;-67
2021/09/24 05:06:41;;;;;;;7.87;7.07;;;21.40;61.30;;;;;;5072862;28;20205;-67
2021/09/24 05:09:11;;;;;;;8.53;6.90;;;21.40;61.40;;;;;;5040779;28;20193;-67
2021/09/24 05:11:43;;;;;;;9.53;7.70;;;21.50;61.40;;;;;;5059487;28;20263;-66
2021/09/24 05:14:12;;;;;;;9.07;7.83;;;21.50;61.50;;;;;;5070334;28;20224;-66
2021/09/24 05:16:40;;;;;;;8.87;7.80;;;21.40;61.40;;;;;;5082469;28;20216;-68
2021/09/24 05:19:11;;;;;;;8.80;7.77;;;21.40;61.40;;;;;;5057927;28;20300;-68
2021/09/24 05:21:42;;;;;;;8.97;8.00;;;21.50;61.40;;;;;;5063778;28;20681;-65
2021/09/24 05:24:10;;;;;;;9.57;8.50;;;21.40;61.30;;;;;;5070974;28;20228;-66
2021/09/24 05:26:42;;;;;;;9.13;8.23;;;21.40;61.50;;;;;;5079197;28;20606;-65
2021/09/24 05:29:15;;;;;;;10.63;8.37;;;21.40;61.50;;;;;;5071002;28;20202;-65
2021/09/24 05:31:56;;;;;;;9.70;8.33;;;21.50;61.50;;;;;;5066788;28;20210;-65
2021/09/24 05:34:41;;;;;;;10.23;8.67;;;21.40;61.50;;;;;;5061430;28;20292;-65
2021/09/24 05:37:11;;;;;;;11.53;9.40;;;21.50;61.60;;;;;;5047873;28;20313;-65
2021/09/24 05:39:43;;;;;;;11.53;8.60;;;21.40;61.50;;;;;;5052569;28;20193;-66
2021/09/24 05:42:15;;;;;;;9.90;8.83;;;21.40;61.50;;;;;;5058666;28;20313;-65
2021/09/24 05:44:43;;;;;;;10.70;8.90;;;21.40;61.60;;;;;;5054079;28;20233;-65
2021/09/24 05:47:17;;;;;;;9.67;8.37;;;21.50;61.60;;;;;;5078313;28;20209;-65
2021/09/24 05:49:45;;;;;;;15.03;9.63;;;21.40;61.50;;;;;;5052683;28;20194;-65
2021/09/24 05:52:17;;;;;;;11.33;9.07;;;21.40;61.60;;;;;;5081651;28;20602;-65
2021/09/24 05:54:50;;;;;;;10.33;9.13;;;21.40;61.70;;;;;;5071788;28;20213;-66
2021/09/24 05:57:21;;;;;;;10.07;8.47;;;21.50;61.60;;;;;;5073563;28;20266;-66
2021/09/24 05:59:50;;;;;;;10.30;8.50;;;21.40;61.50;;;;;;5053639;28;20209;-66
2021/09/24 06:02:20;;;;;;;11.57;8.70;;;21.50;61.60;;;;;;5067429;28;20248;-66
2021/09/24 06:04:53;;;;;;;13.87;8.33;;;21.40;61.60;;;;;;5064906;28;20206;-66
2021/09/24 06:07:25;;;;;;;12.83;8.60;;;21.40;61.70;;;;;;5072458;28;20193;-64
2021/09/24 06:09:58;;;;;;;11.67;8.30;;;21.40;61.60;;;;;;5068655;28;20209;-64
2021/09/24 06:12:31;;;;;;;9.60;8.20;;;21.40;61.50;;;;;;5070640;28;20251;-65
2021/09/24 06:15:03;;;;;;;9.67;8.67;;;21.40;61.50;;;;;;5072551;28;20201;-64
2021/09/24 06:17:35;;;;;;;9.23;8.27;;;21.40;61.60;;;;;;5055234;28;20208;-64
2021/09/24 06:20:06;;;;;;;13.17;8.30;;;21.40;61.50;;;;;;5069282;28;20229;-64
2021/09/24 06:22:37;;;;;;;9.73;8.27;;;21.40;61.50;;;;;;5055965;28;20276;-65
2021/09/24 06:25:09;;;;;;;8.87;7.73;;;21.40;61.50;;;;;;5069149;28;20202;-64
2021/09/24 06:27:41;;;;;;;9.43;7.83;;;21.40;61.50;;;;;;5057733;28;20201;-64
2021/09/24 06:30:18;;;;;;;10.03;7.17;;;21.50;61.50;;;;;;5070189;28;20213;-65
2021/09/24 06:32:50;;;;;;;8.57;7.60;;;21.40;61.50;;;;;;5054014;28;20646;-65
2021/09/24 06:35:23;;;;;;;11.90;7.40;;;21.40;61.50;;;;;;5070918;28;20255;-65
2021/09/24 06:37:57;;;;;;;9.70;7.93;;;21.50;61.50;;;;;;5054751;28;20205;-66
2021/09/24 06:40:39;;;;;;;8.60;6.73;;;21.40;61.50;;;;;;5064036;28;20289;-64
2021/09/24 06:43:12;;;;;;;9.40;7.67;;;21.50;61.50;;;;;;5062180;28;20221;-64
2021/09/24 06:45:43;;;;;;;9.63;8.10;;;21.40;61.50;;;;;;5071711;28;20204;-66
2021/09/24 06:48:15;;;;;;;9.90;7.63;;;21.40;61.50;;;;;;5056324;28;20680;-65
2021/09/24 06:50:48;;;;;;;10.35;8.32;;;21.40;61.50;;;;;;5061430;28;20484;-65
2021/09/24 06:53:19;;;;;;;9.87;7.77;;;21.40;61.80;;;;;;5071025;28;20259;-69
2021/09/24 06:55:49;;;;;;;14.10;8.20;;;21.50;62.00;;;;;;5067998;28;20298;-68
2021/09/24 06:58:21;;;;;;;11.87;8.13;;;21.50;62.20;;;;;;5063739;28;20205;-68
2021/09/24 07:00:52;;;;;;;15.00;8.63;;;21.60;62.20;;;;;;5070091;28;20208;-70
2021/09/24 07:03:24;;;;;;;12.63;9.20;;;21.60;62.20;;;;;;5064408;28;20241;-70
2021/09/24 07:05:55;;;;;;;11.13;8.50;;;21.60;62.30;;;;;;5068488;28;20193;-70
2021/09/24 07:08:29;;;;;;;13.37;8.70;;;21.60;61.90;;;;;;5068971;28;20283;-71
2021/09/24 07:11:00;;;;;;;11.77;8.33;;;21.70;62.00;;;;;;5053750;28;20209;-70
2021/09/24 07:13:30;;;;;;;12.50;8.00;;;21.70;62.00;;;;;;5051508;28;20581;-69
2021/09/24 07:16:02;;;;;;;12.60;9.17;;;21.70;61.70;;;;;;5068037;28;20205;-71
2021/09/24 07:18:32;;;;;;;11.50;8.90;;;21.80;61.90;;;;;;5068226;28;20837;-69
2021/09/24 07:21:02;;;;;;;16.77;9.53;;;21.80;62.40;;;;;;5053247;28;20201;-68
2021/09/24 07:23:32;;;;;;;11.00;8.47;;;21.80;61.60;;;;;;5070820;28;20321;-69
2021/09/24 07:26:02;;;;;;;13.30;8.83;;;21.90;61.50;;;;;;5055480;28;20774;-69
2021/09/24 07:28:34;;;;;;;10.17;7.77;;;21.90;61.60;;;;;;5065585;28;20193;-69
2021/09/24 07:31:06;;;;;;;11.70;8.80;;;21.90;61.40;;;;;;5065836;28;20201;-68
2021/09/24 07:33:34;;;;;;;8.47;7.63;;;21.90;61.20;;;;;;5050415;28;20540;-69
2021/09/24 07:36:03;;;;;;;9.97;7.63;;;22.00;61.00;;;;;;5073915;28;20742;-70
2021/09/24 07:38:34;;;;;;;13.30;8.47;;;22.00;60.90;;;;;;5067610;28;20364;-68
2021/09/24 07:41:03;;;;;;;11.67;8.17;;;22.00;61.00;;;;;;5064034;28;20255;-66
2021/09/24 07:43:34;;;;;;;9.43;8.40;;;22.00;60.90;;;;;;5068979;28;20230;-69
2021/09/24 07:46:05;;;;;;;11.10;9.30;;;22.10;61.20;;;;;;5071000;28;20646;-67
2021/09/24 07:48:35;;;;;;;9.37;7.97;;;22.10;61.40;;;;;;5068354;28;20212;-67
2021/09/24 07:51:06;;;;;;;9.13;8.23;;;22.10;61.10;;;;;;5068957;28;20198;-66
2021/09/24 07:53:39;;;;;;;11.10;8.70;;;22.10;61.30;;;;;;5068634;28;20679;-66
2021/09/24 07:56:12;;;;;;;11.33;8.87;;;22.10;61.30;;;;;;5061832;28;20217;-67
2021/09/24 07:58:42;;;;;;;10.13;7.93;;;22.10;61.20;;;;;;5053529;28;20212;-67
2021/09/24 08:01:13;;;;;;;9.13;8.23;;;22.20;61.20;;;;;;5054050;28;20820;-65
2021/09/24 08:03:42;;;;;;;11.03;8.83;;;22.20;61.90;;;;;;5045828;28;20228;-65
2021/09/24 08:06:14;;;;;;;9.63;8.33;;;22.20;61.10;;;;;;5052852;28;20206;-64
2021/09/24 08:08:46;;;;;;;9.73;8.53;;;22.20;61.10;;;;;;5067318;28;20198;-64
2021/09/24 08:11:16;;;;;;;9.93;8.90;;;22.30;61.40;;;;;;5069505;28;20239;-66
2021/09/24 08:13:47;;;;;;;9.50;8.57;;;22.30;61.20;;;;;;5068261;28;20305;-67
2021/09/24 08:16:16;;;;;;;9.37;8.23;;;22.20;61.10;;;;;;5069715;28;20209;-66
2021/09/24 08:18:46;;;;;;;8.80;7.90;;;22.30;61.10;;;;;;5068404;28;20215;-66
2021/09/24 08:21:15;;;;;;;9.63;8.43;;;22.30;60.90;;;;;;5069105;28;20201;-66
2021/09/24 08:23:45;;;;;;;9.30;7.87;;;22.30;60.90;;;;;;5054447;28;20214;-64
2021/09/24 08:26:15;;;;;;;8.37;7.57;;;22.30;61.00;;;;;;5074808;28;20259;-63
2021/09/24 08:28:43;;;;;;;8.73;7.83;;;22.30;60.90;;;;;;5069755;28;20214;-64
2021/09/24 08:31:15;;;;;;;9.23;7.87;;;22.30;60.90;;;;;;5063021;28;20202;-64
2021/09/24 08:33:44;;;;;;;9.53;7.83;;;22.40;60.80;;;;;;5052298;28;20209;-63
2021/09/24 08:36:12;;;;;;;9.57;7.70;;;22.30;60.90;;;;;;5054467;28;20253;-64
2021/09/24 08:38:42;;;;;;;10.63;8.80;;;22.40;60.70;;;;;;5068492;28;20213;-64
2021/09/24 08:41:13;;;;;;;10.30;8.40;;;22.40;61.10;;;;;;5064510;28;20260;-63
2021/09/24 08:43:42;;;;;;;10.20;9.10;;;22.40;61.50;;;;;;5068458;28;20261;-63
2021/09/24 08:46:14;;;;;;;10.13;9.13;;;22.40;61.50;;;;;;5071046;28;20248;-64
2021/09/24 08:48:44;;;;;;;10.20;8.63;;;22.40;61.00;;;;;;5068836;28;20224;-65
2021/09/24 08:51:20;;;;;;;10.43;8.13;;;22.50;60.80;;;;;;5052364;28;20205;-66
2021/09/24 08:53:52;;;;;;;12.97;10.00;;;22.50;60.80;;;;;;5068495;28;20630;-64
2021/09/24 08:56:24;;;;;;;10.97;9.47;;;22.50;61.50;;;;;;5064539;28;20216;-64
2021/09/24 08:58:54;;;;;;;11.80;8.07;;;22.40;61.20;;;;;;5037354;28;20198;-69
2021/09/24 09:01:25;;;;;;;9.10;7.60;;;22.40;60.90;;;;;;5073184;28;20217;-68
2021/09/24 09:03:59;;;;;;;11.80;7.87;;;22.50;60.70;;;;;;5072936;28;20217;-69
2021/09/24 09:06:30;;;;;;;9.70;8.43;;;22.50;60.50;;;;;;5075463;28;20197;-68
2021/09/24 09:09:07;;;;;;;10.23;8.47;;;22.50;60.70;;;;;;5055546;28;20191;-69
2021/09/24 09:11:36;;;;;;;11.40;10.07;;;22.60;60.90;;;;;;5073478;28;20307;-71
2021/09/24 09:14:17;;;;;;;9.70;8.70;;;22.60;61.60;;;;;;5069320;28;20237;-71
2021/09/24 09:17:00;;;;;;;9.50;8.03;;;22.60;60.70;;;;;;5062483;28;20216;-70
2021/09/24 09:19:36;;;;;;;10.03;8.17;;;22.60;60.70;;;;;;5070877;28;20198;-68
2021/09/24 09:22:24;;;;;;;10.53;9.43;;;22.70;60.20;;;;;;5056928;28;20228;-69
2021/09/24 09:24:57;;;;;;;10.03;8.83;;;22.70;61.00;;;;;;5075251;28;20213;-69
2021/09/24 09:27:28;;;;;;;8.87;7.57;;;22.70;60.00;;;;;;5072294;28;20259;-69
2021/09/24 09:30:14;;;;;;;10.00;7.43;;;22.80;60.00;;;;;;5072624;28;20218;-70
2021/09/24 09:33:14;;;;;;;8.30;7.30;;;22.80;60.20;;;;;;5072332;28;20208;-65
2021/09/24 09:35:55;;;;;;;9.57;7.20;;;22.80;60.10;;;;;;5060097;28;20706;-66
2021/09/24 09:38:40;;;;;;;9.57;7.07;;;22.80;60.10;;;;;;5070603;28;20216;-70
2021/09/24 09:41:13;;;;;;;7.33;6.63;;;22.90;60.10;;;;;;5071906;28;20216;-69
2021/09/24 09:43:49;;;;;;;8.60;7.60;;;22.90;60.00;;;;;;5051284;28;20229;-69
2021/09/24 09:46:22;;;;;;;8.77;7.07;;;22.90;59.80;;;;;;5062668;28;20205;-70
2021/09/24 09:49:07;;;;;;;8.23;6.43;;;22.90;59.40;;;;;;5056870;28;20883;-67
2021/09/24 09:51:41;;;;;;;6.80;6.03;;;23.00;59.60;;;;;;5051128;28;20206;-67
2021/09/24 09:54:25;;;;;;;7.53;6.17;;;23.00;59.60;;;;;;5070030;28;20671;-67
2021/09/24 09:57:22;;;;;;;7.33;6.00;;;23.00;59.60;;;;;;5059123;28;20653;-66
2021/09/24 09:59:56;;;;;;;7.13;6.43;;;23.00;59.20;;;;;;5056104;28;20263;-67
2021/09/24 10:02:35;;;;;;;6.87;5.97;;;23.00;59.60;;;;;;5055669;28;20217;-63
2021/09/24 10:05:08;;;;;;;8.03;5.90;;;22.90;59.50;;;;;;5054886;28;20235;-65
2021/09/24 10:07:43;;;;;;;8.00;5.83;;;22.90;59.60;;;;;;5068545;28;20206;-66
2021/09/24 10:10:16;;;;;;;8.43;5.90;;;22.90;59.60;;;;;;5068165;28;20275;-67
2021/09/24 10:12:48;;;;;;;7.17;6.47;;;22.90;59.60;;;;;;5072476;28;20205;-66
2021/09/24 10:15:18;;;;;;;7.20;5.57;;;22.90;60.30;;;;;;5072235;28;20838;-66
2021/09/24 10:17:54;;;;;;;9.03;6.13;;;22.90;59.80;;;;;;5069980;28;20199;-66
2021/09/24 10:20:25;;;;;;;5.93;5.30;;;22.90;60.10;;;;;;5070761;28;20251;-68
2021/09/24 10:22:55;;;;;;;7.67;6.67;;;22.80;60.00;;;;;;5068650;28;20522;-68
2021/09/24 10:25:26;;;;;;;6.67;5.60;;;22.80;60.30;;;;;;5063673;28;20208;-67
2021/09/24 10:28:04;;;;;;;8.70;5.60;;;22.80;60.20;;;;;;5070456;28;20210;-67
2021/09/24 10:30:45;;;;;;;6.10;5.50;;;22.80;60.30;;;;;;5052913;28;20198;-69
2021/09/24 10:33:16;;;;;;;5.63;5.13;;;22.70;60.60;;;;;;5067691;28;20205;-68
2021/09/24 10:35:53;;;;;;;6.67;4.90;;;22.70;60.30;;;;;;5068382;28;20638;-68
2021/09/24 10:38:30;;;;;;;6.07;5.33;;;22.60;60.40;;;;;;5057097;28;20208;-68
2021/09/24 10:41:13;;;;;;;8.00;4.73;;;22.60;60.70;;;;;;5043044;28;20615;-68
2021/09/24 10:43:52;;;;;;;5.03;4.50;;;22.60;60.60;;;;;;5071958;28;20237;-67
2021/09/24 10:46:43;;;;;;;6.77;4.57;;;22.60;60.70;;;;;;5055953;28;20228;-65
2021/09/24 10:49:19;;;;;;;7.27;4.90;;;22.60;61.20;;;;;;5056867;28;20193;-65
2021/09/24 10:52:34;;;;;;;7.40;4.80;;;22.60;61.00;;;;;;5065610;28;20286;-68
2021/09/24 10:55:09;;;;;;;7.43;4.40;;;22.50;60.80;;;;;;5075772;28;20197;-67
2021/09/24 10:57:53;;;;;;;6.43;4.30;;;22.60;60.70;;;;;;5055988;28;20235;-68
2021/09/24 11:00:32;;;;;;;5.70;4.23;;;22.60;61.00;;;;;;5065395;28;20216;-68
2021/09/24 11:03:14;;;;;;;6.17;4.00;;;22.60;60.90;;;;;;5062614;28;20252;-68
2021/09/24 11:06:02;;;;;;;5.73;4.03;;;22.70;61.00;;;;;;5066146;28;20251;-68
2021/09/24 11:08:41;;;;;;;10.07;3.30;;;22.70;60.70;;;;;;5074311;28;20193;-67
2021/09/24 11:11:31;;;;;;;5.50;3.53;;;22.70;60.60;;;;;;5057682;28;20194;-68
2021/09/24 11:14:36;;;;;;;4.80;3.53;;;22.80;60.40;;;;;;5072428;28;20279;-66
2021/09/24 11:17:08;;;;;;;8.57;3.50;;;22.80;60.10;;;;;;5054767;28;20197;-67
2021/09/24 11:19:52;;;;;;;4.67;2.97;;;22.80;60.30;;;;;;5055399;28;20618;-69
2021/09/24 11:22:37;;;;;;;4.53;3.30;;;22.90;60.30;;;;;;5067891;28;20202;-67
2021/09/24 11:25:12;;;;;;;3.57;2.87;;;22.90;60.00;;;;;;5065820;28;20583;-67
2021/09/24 11:27:46;;;;;;;5.57;3.83;;;22.90;59.80;;;;;;5042467;28;20194;-66
2021/09/24 11:30:41;;;;;;;4.53;3.10;;;23.00;60.30;;;;;;5056372;28;20251;-66
2021/09/24 11:33:48;;;;;;;4.53;3.10;;;23.00;59.90;;;;;;5071585;28;20654;-66
2021/09/24 11:37:03;;;;;;;4.07;2.97;;;23.00;59.90;;;;;;5072242;28;20194;-71
2021/09/24 11:39:53;;;;;;;4.00;2.53;;;23.10;59.90;;;;;;5057816;28;20221;-69
2021/09/24 11:42:28;;;;;;;3.67;3.13;;;23.10;59.90;;;;;;5052621;28;20685;-68
2021/09/24 11:44:59;;;;;;;3.50;2.80;;;23.20;59.60;;;;;;5069934;28;20233;-70
2021/09/24 11:47:36;;;;;;;4.70;2.77;;;23.20;59.60;;;;;;5068849;28;20285;-68
2021/09/24 11:50:15;;;;;;;6.27;2.60;;;23.20;59.50;;;;;;5069703;28;20209;-68
2021/09/24 11:52:54;;;;;;;5.30;2.83;;;23.20;59.40;;;;;;5069164;28;20206;-69
2021/09/24 11:55:38;;;;;;;5.13;2.90;;;23.20;59.40;;;;;;5075798;28;20235;-68
2021/09/24 11:58:26;;;;;;;5.60;3.00;;;23.30;59.20;;;;;;5037579;28;20197;-67
2021/09/24 12:00:58;;;;;;;3.47;3.13;;;23.20;59.20;;;;;;5067786;28;20211;-69
2021/09/24 12:03:32;;;;;;;8.00;3.17;;;23.30;59.30;;;;;;5034201;28;20225;-66
2021/09/24 12:06:15;;;;;;;3.33;2.50;;;23.30;59.20;;;;;;5069255;28;20280;-67
2021/09/24 12:08:53;;;;;;;6.10;3.47;;;23.40;59.30;;;;;;5067670;28;20243;-68
2021/09/24 12:11:26;;;;;;;4.03;2.83;;;23.40;59.40;;;;;;5052281;28;20220;-65
2021/09/24 12:14:01;;;;;;;3.80;3.17;;;23.40;58.70;;;;;;5068903;28;20205;-66
2021/09/24 12:16:40;;;;;;;3.63;2.70;;;23.40;58.90;;;;;;5052706;28;20256;-65
2021/09/24 12:19:18;;;;;;;2.73;2.53;;;23.30;58.40;;;;;;5050041;28;20556;-65
2021/09/24 12:22:02;;;;;;;3.87;2.83;;;23.30;58.50;;;;;;5052417;28;20205;-66
2021/09/24 12:24:37;;;;;;;3.43;2.77;;;23.20;58.70;;;;;;5067243;28;20230;-68
2021/09/24 12:27:13;;;;;;;4.63;2.80;;;23.20;58.70;;;;;;5054557;28;20247;-68
2021/09/24 12:29:44;;;;;;;3.20;2.90;;;23.20;59.10;;;;;;5071285;28;20193;-69
2021/09/24 12:32:16;;;;;;;7.20;3.00;;;23.30;59.60;;;;;;5061783;28;20257;-68
2021/09/24 12:35:02;;;;;;;4.90;2.77;;;23.30;59.60;;;;;;5059173;28;20209;-68
2021/09/24 12:37:44;;;;;;;5.93;2.90;;;23.40;59.70;;;;;;5060768;28;20187;-68
2021/09/24 12:40:19;;;;;;;4.33;3.23;;;23.40;59.80;;;;;;5053423;28;20223;-67
2021/09/24 12:42:58;;;;;;;5.20;3.50;;;23.50;59.70;;;;;;5057973;28;20227;-69
2021/09/24 12:45:43;;;;;;;5.50;3.83;;;23.50;59.60;;;;;;5042258;28;20331;-70
2021/09/24 12:48:25;;;;;;;7.40;4.53;;;23.50;59.70;;;;;;5073649;28;20229;-69
2021/09/24 12:50:54;;;;;;;5.03;4.40;;;23.60;59.60;;;;;;5072965;28;20221;-70
2021/09/24 12:53:26;;;;;;;4.23;3.83;;;23.60;59.50;;;;;;5055342;28;20223;-68
2021/09/24 12:55:59;;;;;;;4.17;3.73;;;23.60;59.50;;;;;;5056982;28;20207;-70
2021/09/24 12:58:47;;;;;;;5.53;4.03;;;23.60;59.10;;;;;;5055756;28;20202;-70
2021/09/24 13:01:20;;;;;;;4.93;3.57;;;23.70;59.30;;;;;;5048866;28;20214;-70
2021/09/24 13:03:57;;;;;;;5.00;3.80;;;23.70;59.10;;;;;;5040571;28;20665;-69
2021/09/24 13:06:30;;;;;;;5.17;4.20;;;23.70;59.20;;;;;;5071116;28;20213;-70
2021/09/24 13:08:59;;;;;;;4.73;3.93;;;23.70;59.20;;;;;;5068614;28;20263;-70
2021/09/24 13:11:34;;;;;;;6.37;4.43;;;23.80;59.00;;;;;;5070489;28;20198;-70
2021/09/24 13:14:06;;;;;;;4.83;3.33;;;23.80;58.80;;;;;;5055019;28;20222;-71
2021/09/24 13:16:38;;;;;;;3.43;3.13;;;23.80;59.00;;;;;;5065261;28;20205;-72
2021/09/24 13:19:10;;;;;;;3.87;3.43;;;23.80;59.00;;;;;;5064271;28;20202;-70